< < Back
Terminal Aerodrome Forecast


Current Version              Previous Versions:   1  2  3  4  5  6  7  8  9  

Terminal Aerodrome Forecast

436
FTUS44 KBMX 041728
TAFANB
TAF
KANB 041728Z 0418/0518 24007KT P6SM SCT050
     FM042000 24007KT 4SM -TSRA BKN050CB
      TEMPO 0420/0424 1SM TSRA BKN025CB
     FM050200 21003KT P6SM VCSH BKN040
     FM050800 19003KT P6SM VCSH OVC015=



Latest METAR

091
SAUS70 KWBC 042200 RRH
MTRANB
METAR KANB 042153Z AUTO 24005KT 10SM CLR 28/21 A3002 RMK AO2 LTG DSNT NE
AND SW RAB03E15 SLP158 P0000 T02830211


USA.gov is the U.S. government's official web portal to all federal, state and local government web resources and services.